Edmonton Namao Alta., Canada
Current Conditions -  °F | °C
As of 7:34 AM on Tuesday 27 Jan 2015 (Local Time) from CYXD Reporting Station
Few Clouds Few Clouds  
Wind Chill: 29°   Ceiling: Unl
Heat Index: 36°   Visibility: 3mi
Dew Point: 32°   Wind: 8mph
Humidity: 87%   Direction: 80°E
Pressure: 29.77"   Gusts: NA
Location:  53.61°N, 113.46°W
Report Text: CYXD 271434Z AUTO 08007KT 3SM FEW098 02/00 A2977
Loading
Personal Weather Stations






























Interactive Weather Map New forecast layout! Learn more

10-Day Weather Forecast

Advertisements
Track Severe Weather on mobile